Time;durP1;ratioP1;P1;durP2;ratioP2;P2;SDS_P1;SDS_P2;PMS_P1;PMS_P2;Temp;Humidity;BMP_temperature;BMP_pressure;BME280_temperature;BME280_humidity;BME280_pressure;Samples;Min_cycle;Max_cycle;Signal;HPM_P1;HPM_P2
2022/04/08 00:00:51;;;;;;;;;;;;;;;20.93;43.70;97983.56;4973058;28;4306;-56
2022/04/08 00:03:17;;;;;;;;;;;;;;;20.94;43.68;97998.69;4974898;28;4197;-56
2022/04/08 00:05:44;;;;;;;;;;;;;;;20.95;43.76;98008.75;4974233;28;4116;-56
2022/04/08 00:08:11;;;;;;;;;;;;;;;20.91;43.68;98003.72;4976550;28;4431;-57
2022/04/08 00:10:37;;;;;;;;;;;;;;;20.91;43.61;98015.22;4972931;28;4247;-56
2022/04/08 00:13:03;;;;;;;;;;;;;;;20.91;43.80;98026.72;4977179;28;4265;-56
2022/04/08 00:15:33;;;;;;;;;;;;;;;20.93;43.70;98006.56;4978887;28;4898;-58
2022/04/08 00:17:59;;;;;;;;;;;;;;;20.95;43.73;98031.75;4976890;28;4247;-56
2022/04/08 00:20:26;;;;;;;;;;;;;;;20.97;43.76;98022.41;4972366;28;4501;-57
2022/04/08 00:22:53;;;;;;;;;;;;;;;20.97;43.67;98028.16;4978556;28;4220;-56
2022/04/08 00:25:20;;;;;;;;;;;;;;;20.97;43.63;98022.41;4976958;28;4332;-56
2022/04/08 00:27:46;;;;;;;;;;;;;;;20.98;43.75;98029.59;4977580;28;4264;-56
2022/04/08 00:30:12;;;;;;;;;;;;;;;20.97;43.78;98028.16;4973109;28;5304;-56
2022/04/08 00:32:39;;;;;;;;;;;;;;;20.93;43.83;98038.22;4978681;28;4181;-57
2022/04/08 00:35:05;;;;;;;;;;;;;;;20.96;43.65;98038.94;4975675;28;5230;-56
2022/04/08 00:37:32;;;;;;;;;;;;;;;20.96;43.79;98066.97;4979243;28;4279;-57
2022/04/08 00:39:58;;;;;;;;;;;;;;;20.97;43.76;98056.94;4976514;28;4600;-55
2022/04/08 00:42:24;;;;;;;;;;;;;;;20.96;43.78;98069.84;4976405;28;5476;-57
2022/04/08 00:44:51;;;;;;;;;;;;;;;20.95;43.67;98082.81;4976430;28;5362;-56
2022/04/08 00:47:17;;;;;;;;;;;;;;;20.91;43.79;98090.00;4976130;28;4241;-56
2022/04/08 00:49:43;;;;;;;;;;;;;;;20.92;43.66;98102.94;4977553;28;4126;-57
2022/04/08 00:52:10;;;;;;;;;;;;;;;20.93;43.79;98101.50;4979348;28;4213;-56
2022/04/08 00:54:37;;;;;;;;;;;;;;;20.93;43.71;98115.16;4976712;28;4115;-54
2022/04/08 00:57:03;;;;;;;;;;;;;;;20.90;43.80;98128.81;4979029;28;4079;-55
2022/04/08 00:59:30;;;;;;;;;;;;;;;20.91;43.64;98147.53;4978289;28;5362;-56
2022/04/08 01:01:56;;;;;;;;;;;;;;;20.91;43.74;98161.91;4975315;28;5751;-56
2022/04/08 01:04:23;;;;;;;;;;;;;;;20.90;43.72;98154.72;4974944;28;4082;-56
2022/04/08 01:06:49;;;;;;;;;;;;;;;20.90;43.80;98168.38;4975884;28;4007;-56
2022/04/08 01:09:16;;;;;;;;;;;;;;;20.90;43.74;98191.38;4974141;28;5280;-56
2022/04/08 01:11:42;;;;;;;;;;;;;;;20.91;43.70;98181.31;4977095;28;5414;-54
2022/04/08 01:14:09;;;;;;;;;;;;;;;20.87;43.61;98184.91;4979165;28;4327;-57
2022/04/08 01:16:35;;;;;;;;;;;;;;;20.86;43.69;98186.34;4979243;28;4252;-54
2022/04/08 01:19:02;;;;;;;;;;;;;;;20.86;43.70;98191.38;4977546;28;4108;-56
2022/04/08 01:21:28;;;;;;;;;;;;;;;20.85;43.77;98210.78;4974094;28;5324;-56
2022/04/08 01:23:55;;;;;;;;;;;;;;;20.85;43.77;98224.44;4977676;28;4255;-57
2022/04/08 01:26:21;;;;;;;;;;;;;;;20.85;43.74;98222.28;4975187;28;4539;-56
2022/04/08 01:28:48;;;;;;;;;;;;;;;20.86;43.75;98226.59;4973277;28;4240;-57
2022/04/08 01:31:15;;;;;;;;;;;;;;;20.83;43.69;98216.53;4970198;28;5584;-55
2022/04/08 01:33:41;;;;;;;;;;;;;;;20.83;43.61;98233.78;4975248;28;4648;-55
2022/04/08 01:36:08;;;;;;;;;;;;;;;20.83;43.69;98241.69;4974358;28;4378;-56
2022/04/08 01:38:34;;;;;;;;;;;;;;;20.82;43.55;98243.13;4978345;28;4254;-55
2022/04/08 01:41:01;;;;;;;;;;;;;;;20.82;43.59;98246.75;4977999;28;4608;-57
2022/04/08 01:43:27;;;;;;;;;;;;;;;20.81;43.60;98253.91;4975546;28;4336;-54
2022/04/08 01:45:54;;;;;;;;;;;;;;;20.80;43.65;98263.97;4977419;28;4241;-56
2022/04/08 01:48:20;;;;;;;;;;;;;;;20.79;43.65;98268.28;4975763;28;4314;-56
2022/04/08 01:50:46;;;;;;;;;;;;;;;20.79;43.73;98279.78;4975386;28;4282;-56
2022/04/08 01:53:15;;;;;;;;;;;;;;;20.79;43.63;98279.78;4975285;28;4520;-56
2022/04/08 01:55:42;;;;;;;;;;;;;;;20.79;43.61;98276.19;4973288;28;4422;-56
2022/04/08 01:58:08;;;;;;;;;;;;;;;20.76;43.71;98278.34;4976152;28;4235;-56
2022/04/08 02:00:34;;;;;;;;;;;;;;;20.76;43.61;98289.13;4974549;28;4084;-55
2022/04/08 02:03:01;;;;;;;;;;;;;;;20.77;43.54;98291.28;4974544;28;4278;-55
2022/04/08 02:05:27;;;;;;;;;;;;;;;20.76;43.40;98286.25;4974461;28;4033;-55
2022/04/08 02:07:54;;;;;;;;;;;;;;;20.76;43.62;98298.47;4976239;28;4580;-56
2022/04/08 02:10:20;;;;;;;;;;;;;;;20.75;43.67;98291.25;4976561;28;5443;-55
2022/04/08 02:12:47;;;;;;;;;;;;;;;20.73;43.63;98311.41;4977222;28;4502;-55
2022/04/08 02:15:13;;;;;;;;;;;;;;;20.74;43.61;98309.97;4978302;28;4424;-56
2022/04/08 02:17:40;;;;;;;;;;;;;;;20.76;43.56;98315.72;4975261;28;4251;-57
2022/04/08 02:20:08;;;;;;;;;;;;;;;20.74;43.56;98315.00;4975076;28;4179;-57
2022/04/08 02:22:35;;;;;;;;;;;;;;;20.72;43.50;98332.97;4975644;28;5638;-57
2022/04/08 02:25:02;;;;;;;;;;;;;;;20.71;43.49;98325.78;4976052;28;4198;-55
2022/04/08 02:27:29;;;;;;;;;;;;;;;20.70;43.49;98347.31;4975616;28;4156;-57
2022/04/08 02:29:56;;;;;;;;;;;;;;;20.70;43.43;98321.44;4975474;28;4387;-55
2022/04/08 02:32:22;;;;;;;;;;;;;;;20.69;43.35;98340.13;4976509;28;4311;-54
2022/04/08 02:34:50;;;;;;;;;;;;;;;20.68;43.37;98345.16;4975552;28;4250;-54
2022/04/08 02:37:17;;;;;;;;;;;;;;;20.69;43.46;98351.63;4973532;28;5170;-55
2022/04/08 02:39:43;;;;;;;;;;;;;;;20.66;43.46;98356.66;4975534;28;4442;-56
2022/04/08 02:42:10;;;;;;;;;;;;;;;20.70;43.42;98358.81;4973566;28;5640;-55
2022/04/08 02:44:36;;;;;;;;;;;;;;;20.72;43.48;98364.59;4975059;28;4068;-56
2022/04/08 02:47:02;;;;;;;;;;;;;;;20.74;43.43;98358.84;4976678;28;4179;-56
2022/04/08 02:49:29;;;;;;;;;;;;;;;20.69;43.57;98360.25;4975516;28;4328;-55
2022/04/08 02:51:55;;;;;;;;;;;;;;;20.76;43.49;98367.47;4972633;28;4454;-56
2022/04/08 02:54:21;;;;;;;;;;;;;;;20.76;43.51;98367.47;4970236;28;4442;-57
2022/04/08 02:56:48;;;;;;;;;;;;;;;20.75;43.58;98371.06;4975256;28;4189;-57
2022/04/08 02:59:14;;;;;;;;;;;;;;;20.75;43.62;98377.53;4976075;28;5501;-56
2022/04/08 03:01:40;;;;;;;;;;;;;;;20.74;43.58;98390.47;4977342;28;4425;-57
2022/04/08 03:04:08;;;;;;;;;;;;;;;20.72;43.73;98373.22;4974020;28;5379;-56
2022/04/08 03:06:35;;;;;;;;;;;;;;;20.76;43.73;98386.91;4972864;28;4313;-55
2022/04/08 03:09:01;;;;;;;;;;;;;;;20.75;43.68;98394.06;4973605;28;4146;-56
2022/04/08 03:11:27;;;;;;;;;;;;;;;20.77;43.66;98408.47;4976967;28;4217;-55
2022/04/08 03:13:54;;;;;;;;;;;;;;;20.77;43.68;98403.44;4971635;28;4727;-54
2022/04/08 03:16:20;;;;;;;;;;;;;;;20.76;43.76;98413.50;4969133;28;4241;-53
2022/04/08 03:18:46;;;;;;;;;;;;;;;20.76;43.81;98416.38;4974983;28;4389;-57
2022/04/08 03:21:13;;;;;;;;;;;;;;;20.73;43.80;98423.56;4973643;28;4341;-56
2022/04/08 03:23:39;;;;;;;;;;;;;;;20.74;43.94;98430.72;4976626;28;6577;-56
2022/04/08 03:26:06;;;;;;;;;;;;;;;20.76;43.89;98430.03;4972632;28;4238;-56
2022/04/08 03:28:32;;;;;;;;;;;;;;;20.77;43.90;98445.84;4974365;28;4063;-56
2022/04/08 03:30:59;;;;;;;;;;;;;;;20.77;43.97;98455.19;4975929;28;5714;-57
2022/04/08 03:33:25;;;;;;;;;;;;;;;20.84;43.67;98447.31;4975258;28;4347;-57
2022/04/08 03:35:51;;;;;;;;;;;;;;;20.79;43.99;98452.31;4974549;28;4282;-56
2022/04/08 03:38:18;;;;;;;;;;;;;;;20.80;43.97;98465.28;4977835;28;5101;-55
2022/04/08 03:40:44;;;;;;;;;;;;;;;20.80;44.06;98470.31;4976914;28;5269;-56
2022/04/08 03:43:10;;;;;;;;;;;;;;;20.82;44.04;98479.69;4976777;28;5498;-57
2022/04/08 03:45:37;;;;;;;;;;;;;;;20.83;44.14;98474.66;4979457;28;4254;-56
2022/04/08 03:48:03;;;;;;;;;;;;;;;20.82;44.24;98479.69;4981693;28;4082;-55
2022/04/08 03:50:30;;;;;;;;;;;;;;;20.80;44.41;98481.81;4978434;28;5381;-56
2022/04/08 03:52:56;;;;;;;;;;;;;;;20.82;44.46;98491.19;4978325;28;4418;-56
2022/04/08 03:55:23;;;;;;;;;;;;;;;20.79;44.80;98498.34;4978213;28;4170;-55
2022/04/08 03:57:49;;;;;;;;;;;;;;;20.79;44.81;98515.59;4981023;28;4061;-56
2022/04/08 04:00:15;;;;;;;;;;;;;;;20.79;44.72;98521.34;4979265;28;4333;-56
2022/04/08 04:02:42;;;;;;;;;;;;;;;20.84;44.69;98545.81;4979144;28;4273;-55
2022/04/08 04:05:10;;;;;;;;;;;;;;;20.83;44.73;98561.66;4980159;28;4214;-56
2022/04/08 04:07:37;;;;;;;;;;;;;;;20.84;44.69;98557.34;4978840;28;6066;-56
2022/04/08 04:10:03;;;;;;;;;;;;;;;20.85;44.60;98558.06;4978881;28;4249;-55
2022/04/08 04:12:29;;;;;;;;;;;;;;;20.82;44.91;98576.72;4980564;28;4138;-56
2022/04/08 04:14:56;;;;;;;;;;;;;;;20.85;44.65;98581.81;4981255;28;4237;-56
2022/04/08 04:17:23;;;;;;;;;;;;;;;20.82;44.85;98588.22;4979626;28;5269;-56
2022/04/08 04:19:49;;;;;;;;;;;;;;;20.85;44.67;98606.97;4979743;28;5668;-56
2022/04/08 04:22:16;;;;;;;;;;;;;;;20.83;44.60;98607.66;4978317;28;4185;-56
2022/04/08 04:24:42;;;;;;;;;;;;;;;20.84;44.79;98617.72;4981365;28;4486;-57
2022/04/08 04:27:08;;;;;;;;;;;;;;;20.83;44.77;98630.69;4981338;28;5693;-57
2022/04/08 04:29:35;;;;;;;;;;;;;;;20.81;44.80;98639.28;4977479;28;4072;-57
2022/04/08 04:32:03;;;;;;;;;;;;;;;20.83;44.93;98636.44;4976655;28;5327;-56
2022/04/08 04:34:30;;;;;;;;;;;;;;;20.85;44.76;98650.84;4978459;28;4668;-56
2022/04/08 04:36:56;;;;;;;;;;;;;;;20.85;44.84;98662.34;4975686;28;4246;-55
2022/04/08 04:39:22;;;;;;;;;;;;;;;20.85;44.98;98655.88;4979967;28;5306;-56
2022/04/08 04:41:49;;;;;;;;;;;;;;;20.81;45.09;98668.03;4977777;28;4161;-57
2022/04/08 04:44:16;;;;;;;;;;;;;;;20.86;44.85;98663.78;4977457;28;5320;-56
2022/04/08 04:46:43;;;;;;;;;;;;;;;20.86;44.87;98675.28;4976169;28;4183;-56
2022/04/08 04:49:10;;;;;;;;;;;;;;;20.83;45.07;98684.59;4980595;28;4233;-57
2022/04/08 04:51:36;;;;;;;;;;;;;;;20.81;45.15;98678.84;4979516;28;4283;-56
2022/04/08 04:54:03;;;;;;;;;;;;;;;20.82;45.24;98704.03;4974719;28;4244;-55
2022/04/08 04:56:29;;;;;;;;;;;;;;;20.84;45.17;98711.94;4978294;28;5276;-56
2022/04/08 04:58:55;;;;;;;;;;;;;;;20.84;45.12;98726.31;4979283;28;4561;-54
2022/04/08 05:01:22;;;;;;;;;;;;;;;20.91;45.30;98719.94;4977455;28;6466;-58
2022/04/08 05:03:48;;;;;;;;;;;;;;;21.01;46.79;98725.06;4970342;28;5329;-61
2022/04/08 05:06:15;;;;;;;;;;;;;;;21.10;45.88;98725.88;4975466;28;5375;-61
2022/04/08 05:08:41;;;;;;;;;;;;;;;21.10;45.85;98725.88;4980120;28;4255;-60
2022/04/08 05:11:07;;;;;;;;;;;;;;;21.18;45.64;98737.44;4982169;28;4293;-61
2022/04/08 05:13:34;;;;;;;;;;;;;;;21.22;45.24;98737.47;4981703;28;4169;-61
2022/04/08 05:16:00;;;;;;;;;;;;;;;21.24;45.07;98746.13;4983211;28;4463;-60
2022/04/08 05:18:26;;;;;;;;;;;;;;;21.26;45.12;98746.16;4974698;28;4197;-59
2022/04/08 05:20:53;;;;;;;;;;;;;;;21.29;45.44;98747.63;4978156;28;4631;-61
2022/04/08 05:23:19;;;;;;;;;;;;;;;21.29;45.38;98758.41;4973348;28;4238;-61
2022/04/08 05:25:46;;;;;;;;;;;;;;;21.30;45.34;98759.84;4975970;28;4249;-61
2022/04/08 05:28:12;;;;;;;;;;;;;;;21.31;45.31;98762.03;4978041;28;5253;-61
2022/04/08 05:30:39;;;;;;;;;;;;;;;21.27;45.21;98773.50;4977782;28;4204;-60
2022/04/08 05:33:05;;;;;;;;;;;;;;;21.21;45.17;98776.34;4973450;28;5133;-58
2022/04/08 05:35:32;;;;;;;;;;;;;;;21.25;45.79;98782.09;4978569;28;4246;-57
2022/04/08 05:37:58;;;;;;;;;;;;;;;21.17;44.41;98784.91;4972984;28;4581;-58
2022/04/08 05:40:24;;;;;;;;;;;;;;;21.19;43.32;98801.47;4976645;28;5244;-59
2022/04/08 05:42:51;;;;;;;;;;;;;;;21.13;42.35;98805.75;4975750;28;4079;-57
2022/04/08 05:45:18;;;;;;;;;;;;;;;21.22;43.90;98812.31;4974696;28;5350;-58
2022/04/08 05:47:47;;;;;;;;;;;;;;;21.32;44.11;98809.53;4975462;28;4312;-69
2022/04/08 05:50:25;;;;;;;;;;;;;;;21.23;44.10;98825.25;4957911;28;4005;-61
2022/04/08 05:52:52;;;;;;;;;;;;;;;20.75;40.99;98819.69;4968895;28;4167;-60
2022/04/08 05:55:18;;;;;;;;;;;;;;;20.81;40.64;98817.59;4975778;28;4458;-60
2022/04/08 05:57:45;;;;;;;;;;;;;;;20.91;41.23;98820.63;4975495;28;5629;-60
2022/04/08 06:00:13;;;;;;;;;;;;;;;20.93;42.54;98828.53;4976796;28;5244;-60
2022/04/08 06:02:39;;;;;;;;;;;;;;;20.93;43.34;98834.28;4976521;28;4264;-60
2022/04/08 06:05:06;;;;;;;;;;;;;;;20.92;44.14;98833.56;4976289;28;4424;-58
2022/04/08 06:07:33;;;;;;;;;;;;;;;20.91;44.78;98825.63;4974388;28;4647;-58
2022/04/08 06:09:59;;;;;;;;;;;;;;;20.92;44.77;98836.44;4976648;28;4529;-58
2022/04/08 06:12:26;;;;;;;;;;;;;;;20.96;44.96;98840.78;4977142;28;4423;-58
2022/04/08 06:14:53;;;;;;;;;;;;;;;20.96;44.79;98837.91;4978426;28;4149;-58
2022/04/08 06:17:19;;;;;;;;;;;;;;;20.98;44.94;98840.81;4976373;28;4861;-58
2022/04/08 06:19:47;;;;;;;;;;;;;;;20.99;44.92;98845.88;4977674;28;6061;-58
2022/04/08 06:22:13;;;;;;;;;;;;;;;21.02;45.03;98846.63;4974253;28;5493;-58
2022/04/08 06:24:39;;;;;;;;;;;;;;;20.97;45.13;98863.09;4977371;28;4404;-58
2022/04/08 06:27:06;;;;;;;;;;;;;;;20.99;45.07;98859.53;4976048;28;4493;-59
2022/04/08 06:29:32;;;;;;;;;;;;;;;20.96;45.19;98872.44;4976372;28;4178;-58
2022/04/08 06:31:58;;;;;;;;;;;;;;;20.92;45.17;98868.09;4974969;28;4118;-58
2022/04/08 06:34:25;;;;;;;;;;;;;;;20.92;45.28;98876.72;4974663;28;6006;-58
2022/04/08 06:36:52;;;;;;;;;;;;;;;20.93;45.37;98883.19;4973582;28;6184;-58
2022/04/08 06:39:18;;;;;;;;;;;;;;;20.95;45.42;98888.97;4976688;28;4566;-58
2022/04/08 06:41:45;;;;;;;;;;;;;;;20.87;44.61;98918.38;4972819;28;4298;-58
2022/04/08 06:44:12;;;;;;;;;;;;;;;20.71;43.04;98936.13;4974343;28;6307;-66
2022/04/08 06:46:38;;;;;;;;;;;;;;;20.80;43.83;98947.72;4975394;28;6803;-59
2022/04/08 06:49:04;;;;;;;;;;;;;;;20.83;44.46;98964.34;4974981;28;5472;-60
2022/04/08 06:51:31;;;;;;;;;;;;;;;20.84;45.02;98960.03;4975110;28;5833;-58
2022/04/08 06:53:57;;;;;;;;;;;;;;;20.80;43.80;98950.59;4965804;28;4217;-61
2022/04/08 06:56:23;;;;;;;;;;;;;;;20.95;44.21;98975.28;4967728;28;4273;-61
2022/04/08 06:58:50;;;;;;;;;;;;;;;21.05;44.66;98984.06;4976400;28;4176;-58
2022/04/08 07:01:16;;;;;;;;;;;;;;;20.97;44.81;98966.69;4974484;28;5270;-59
2022/04/08 07:03:43;;;;;;;;;;;;;;;20.93;44.97;98950.06;4971366;28;4243;-59
2022/04/08 07:06:09;;;;;;;;;;;;;;;20.93;44.97;98960.88;4976621;28;4505;-60
2022/04/08 07:08:36;;;;;;;;;;;;;;;20.93;45.29;98955.84;4977934;28;4243;-59
2022/04/08 07:11:02;;;;;;;;;;;;;;;20.93;45.46;98966.63;4975333;28;4218;-59
2022/04/08 07:13:28;;;;;;;;;;;;;;;20.96;45.41;98964.50;4965390;28;4146;-58
2022/04/08 07:15:55;;;;;;;;;;;;;;;20.96;45.41;98973.13;4976738;28;5320;-59
2022/04/08 07:18:21;;;;;;;;;;;;;;;20.95;45.52;98978.16;4975242;28;4050;-59
2022/04/08 07:20:48;;;;;;;;;;;;;;;20.95;45.47;98974.56;4979782;28;4130;-58
2022/04/08 07:23:14;;;;;;;;;;;;;;;20.99;45.37;98980.38;4978160;28;4150;-59
2022/04/08 07:25:41;;;;;;;;;;;;;;;20.97;45.38;98986.81;4978127;28;4196;-59
2022/04/08 07:28:07;;;;;;;;;;;;;;;21.04;45.10;98984.75;4979447;28;4206;-59
2022/04/08 07:30:34;;;;;;;;;;;;;;;21.01;45.50;98983.28;4978100;28;4301;-59
2022/04/08 07:33:01;;;;;;;;;;;;;;;21.01;45.02;98977.53;4977491;28;4933;-59
2022/04/08 07:35:30;;;;;;;;;;;;;;;21.02;45.59;98996.25;4978513;28;4027;-57
2022/04/08 07:37:56;;;;;;;;;;;;;;;21.14;45.59;99002.16;4978861;28;4225;-60
2022/04/08 07:40:23;;;;;;;;;;;;;;;21.24;45.38;99004.47;4978411;28;4198;-59
2022/04/08 07:42:49;;;;;;;;;;;;;;;21.28;45.70;99007.38;4971356;28;4168;-58
2022/04/08 07:45:17;;;;;;;;;;;;;;;21.30;45.51;99011.03;4978247;28;4176;-59
2022/04/08 07:47:43;;;;;;;;;;;;;;;21.33;45.27;99012.50;4975602;28;4140;-57
2022/04/08 07:50:10;;;;;;;;;;;;;;;21.38;45.30;99018.31;4979854;28;4154;-59
2022/04/08 07:52:40;;;;;;;;;;;;;;;21.37;45.18;99017.56;4969185;28;4079;-57
2022/04/08 07:55:06;;;;;;;;;;;;;;;21.43;45.04;99017.69;4976159;28;4285;-59
2022/04/08 07:57:33;;;;;;;;;;;;;;;21.45;45.10;99017.00;4977482;28;5262;-58
2022/04/08 07:59:59;;;;;;;;;;;;;;;21.45;45.02;99019.88;4980868;28;3976;-58
2022/04/08 08:02:36;;;;;;;;;;;;;;;21.42;45.00;99024.88;4975907;28;4310;-58
2022/04/08 08:05:03;;;;;;;;;;;;;;;21.45;45.13;99037.13;4979068;28;4344;-58
2022/04/08 08:07:29;;;;;;;;;;;;;;;21.44;44.76;99038.56;4977087;28;4160;-57
2022/04/08 08:09:55;;;;;;;;;;;;;;;21.44;45.01;99044.31;4973606;28;4213;-58
2022/04/08 08:12:22;;;;;;;;;;;;;;;21.46;44.81;99041.47;4978741;28;4312;-57
2022/04/08 08:14:48;;;;;;;;;;;;;;;21.47;44.91;99042.94;4975071;28;5226;-55
2022/04/08 08:17:15;;;;;;;;;;;;;;;21.53;44.75;99051.63;4976154;28;4222;-55
2022/04/08 08:19:41;;;;;;;;;;;;;;;21.53;44.74;99048.75;4978872;28;4087;-57
2022/04/08 08:22:07;;;;;;;;;;;;;;;21.56;44.56;99058.88;4970738;28;5404;-55
2022/04/08 08:24:34;;;;;;;;;;;;;;;21.58;44.57;99064.66;4969142;28;3956;-57
2022/04/08 08:27:01;;;;;;;;;;;;;;;21.48;44.81;99067.41;4974953;28;4233;-57
2022/04/08 08:29:27;;;;;;;;;;;;;;;21.43;44.31;99060.16;4969012;28;4233;-55
2022/04/08 08:31:53;;;;;;;;;;;;;;;21.34;43.38;99074.38;4975927;28;4053;-56
2022/04/08 08:34:20;;;;;;;;;;;;;;;21.36;44.30;99067.22;4977043;28;4258;-57
2022/04/08 08:36:47;;;;;;;;;;;;;;;21.42;44.35;99079.59;4975516;28;4324;-56
2022/04/08 08:39:14;;;;;;;;;;;;;;;21.46;44.37;99087.53;4974498;28;4229;-54
2022/04/08 08:41:40;;;;;;;;;;;;;;;21.45;44.37;99072.41;4975928;28;4088;-53
2022/04/08 08:44:07;;;;;;;;;;;;;;;21.51;44.34;99084.03;4976036;28;4963;-50
2022/04/08 08:46:34;;;;;;;;;;;;;;;21.54;44.22;99071.09;4975534;28;4194;-59
2022/04/08 08:49:02;;;;;;;;;;;;;;;21.57;44.24;99076.88;4973891;28;4528;-61
2022/04/08 08:51:28;;;;;;;;;;;;;;;21.56;44.38;99070.41;4976202;28;4593;-59
2022/04/08 08:53:54;;;;;;;;;;;;;;;21.59;44.48;99071.88;4977599;28;5576;-59
2022/04/08 08:56:21;;;;;;;;;;;;;;;21.63;44.38;99086.34;4972011;28;4436;-60
2022/04/08 08:58:47;;;;;;;;;;;;;;;21.62;44.27;99093.50;4976848;28;4005;-58
2022/04/08 09:01:14;;;;;;;;;;;;;;;21.49;42.40;99092.63;4970621;28;4148;-54
2022/04/08 09:03:42;;;;;;;;;;;;;;;21.57;43.23;99097.75;4974299;28;4151;-55
2022/04/08 09:06:08;;;;;;;;;;;;;;;21.67;43.82;99088.53;4976667;28;4234;-56
2022/04/08 09:08:35;;;;;;;;;;;;;;;21.67;43.64;99089.28;4974705;28;4270;-55
2022/04/08 09:11:01;;;;;;;;;;;;;;;21.74;43.63;99096.56;4969833;28;4184;-57
2022/04/08 09:13:28;;;;;;;;;;;;;;;21.75;43.79;99095.13;4975196;28;4179;-57
2022/04/08 09:15:55;;;;;;;;;;;;;;;21.72;43.95;99102.28;4975916;28;4156;-54
2022/04/08 09:18:22;;;;;;;;;;;;;;;21.77;43.86;99096.59;4978816;28;5752;-49
2022/04/08 09:20:49;;;;;;;;;;;;;;;21.77;43.60;99108.81;4976492;28;4171;-57
2022/04/08 09:23:16;;;;;;;;;;;;;;;21.83;43.52;99099.53;4973854;28;4622;-59
2022/04/08 09:25:43;;;;;;;;;;;;;;;21.80;43.46;99101.66;4977150;28;4068;-60
2022/04/08 09:28:09;;;;;;;;;;;;;;;21.81;43.78;99116.81;4972527;28;4406;-60
2022/04/08 09:30:35;;;;;;;;;;;;;;;21.81;43.44;99114.66;4978543;28;4173;-60
2022/04/08 09:33:11;;;;;;;;;;;;;;;21.85;43.92;99106.06;4974277;28;4241;-54
2022/04/08 09:35:38;;;;;;;;;;;;;;;21.82;43.76;99113.22;4974425;28;4406;-56
2022/04/08 09:38:05;;;;;;;;;;;;;;;21.88;43.71;99115.47;4975352;28;4150;-57
2022/04/08 09:40:37;;;;;;;;;;;;;;;21.87;43.61;99116.88;4973082;28;4213;-56
2022/04/08 09:43:04;;;;;;;;;;;;;;;21.88;43.47;99112.56;4969240;28;3966;-54
2022/04/08 09:45:31;;;;;;;;;;;;;;;21.90;43.31;99116.19;4971608;28;4197;-54
2022/04/08 09:47:58;;;;;;;;;;;;;;;21.91;43.50;99102.50;4978541;28;5441;-51
2022/04/08 09:50:24;;;;;;;;;;;;;;;21.92;43.61;99101.06;4976370;28;4193;-56
2022/04/08 09:52:51;;;;;;;;;;;;;;;21.93;43.61;99103.25;4973632;28;5349;-57
2022/04/08 09:55:17;;;;;;;;;;;;;;;21.92;43.26;99098.94;4977056;28;6658;-57
2022/04/08 09:57:45;;;;;;;;;;;;;;;21.92;43.38;99092.44;4975770;28;4184;-57
2022/04/08 10:00:11;;;;;;;;;;;;;;;21.93;43.48;99096.78;4974716;28;5242;-55
2022/04/08 10:02:39;;;;;;;;;;;;;;;21.81;43.44;99105.28;4972991;28;4261;-56
2022/04/08 10:05:07;;;;;;;;;;;;;;;21.75;43.43;99092.25;4970527;28;5217;-55
2022/04/08 10:07:34;;;;;;;;;;;;;;;21.70;43.44;99107.31;4974400;28;4359;-57
2022/04/08 10:10:02;;;;;;;;;;;;;;;21.71;43.83;99095.06;4975438;28;5319;-53
2022/04/08 10:12:35;;;;;;;;;;;;;;;21.66;43.70;99101.47;4971436;28;5430;-53
2022/04/08 10:15:06;;;;;;;;;;;;;;;21.67;43.99;99100.78;4963585;28;4213;-56
2022/04/08 10:17:33;;;;;;;;;;;;;;;21.67;44.07;99111.56;4977101;28;4157;-52
2022/04/08 10:20:20;;;;;;;;;;;;;;;21.70;44.05;99099.38;4970874;28;4191;-57
2022/04/08 10:22:47;;;;;;;;;;;;;;;21.75;44.05;99118.16;4973665;28;4163;-54
2022/04/08 10:25:14;;;;;;;;;;;;;;;21.78;44.25;99103.78;4975485;28;4282;-55
2022/04/08 10:27:41;;;;;;;;;;;;;;;21.72;44.11;99113.09;4973635;28;4088;-53
2022/04/08 10:30:11;;;;;;;;;;;;;;;21.80;44.00;99101.66;4972189;28;4149;-52
2022/04/08 10:32:38;;;;;;;;;;;;;;;21.83;44.11;99108.16;4969139;28;4175;-53
2022/04/08 10:35:17;;;;;;;;;;;;;;;21.85;44.37;99105.31;4975630;28;3971;-57
2022/04/08 10:38:05;;;;;;;;;;;;;;;21.87;44.29;99099.59;4976684;28;3974;-58
2022/04/08 10:40:32;;;;;;;;;;;;;;;21.88;44.36;99098.16;4971432;28;4197;-59
2022/04/08 10:42:59;;;;;;;;;;;;;;;21.90;44.18;99092.44;4972940;28;4225;-58
2022/04/08 10:45:26;;;;;;;;;;;;;;;21.89;44.07;99106.09;4974517;28;4296;-58
2022/04/08 10:47:52;;;;;;;;;;;;;;;21.90;43.93;99110.44;4976581;28;5283;-48
2022/04/08 10:50:25;;;;;;;;;;;;;;;21.93;43.95;99102.53;4971687;28;5299;-52
2022/04/08 10:53:02;;;;;;;;;;;;;;;21.93;44.07;99091.75;4973875;28;4517;-48
2022/04/08 10:55:28;;;;;;;;;;;;;;;21.91;44.09;99099.63;4974200;28;5255;-54
2022/04/08 10:57:57;;;;;;;;;;;;;;;21.93;44.00;99085.25;4979550;28;4604;-57
2022/04/08 11:00:25;;;;;;;;;;;;;;;21.92;43.94;99095.31;4979724;28;4180;-58
2022/04/08 11:02:55;;;;;;;;;;;;;;;21.94;43.89;99089.56;4979211;28;4181;-58
2022/04/08 11:05:22;;;;;;;;;;;;;;;21.95;43.85;99091.03;4981282;28;4872;-57
2022/04/08 11:07:49;;;;;;;;;;;;;;;21.95;44.04;99088.88;4980434;28;3999;-58
2022/04/08 11:10:16;;;;;;;;;;;;;;;21.98;43.89;99088.91;4981733;28;5536;-52
2022/04/08 11:12:43;;;;;;;;;;;;;;;21.98;43.80;99078.09;4980601;28;4390;-59
2022/04/08 11:15:23;;;;;;;;;;;;;;;21.95;43.70;99077.34;4981085;28;4079;-58
2022/04/08 11:17:50;;;;;;;;;;;;;;;22.01;43.59;99076.69;4982134;28;4050;-58
2022/04/08 11:20:17;;;;;;;;;;;;;;;21.99;43.67;99082.44;4981286;28;5226;-56
2022/04/08 11:22:44;;;;;;;;;;;;;;;21.91;42.86;99070.81;4974472;28;4689;-56
2022/04/08 11:25:12;;;;;;;;;;;;;;;21.84;42.15;99066.41;4980979;28;4683;-58
2022/04/08 11:27:41;;;;;;;;;;;;;;;21.92;42.70;99066.50;4980408;28;5096;-58
2022/04/08 11:30:07;;;;;;;;;;;;;;;21.97;43.04;99068.03;4982740;28;5654;-59
2022/04/08 11:32:34;;;;;;;;;;;;;;;21.99;43.06;99065.16;4982294;28;5544;-58
2022/04/08 11:35:10;;;;;;;;;;;;;;;22.00;43.14;99060.84;4976839;28;4616;-56
2022/04/08 11:37:37;;;;;;;;;;;;;;;22.02;43.04;99063.75;4980451;28;5785;-49
2022/04/08 11:40:04;;;;;;;;;;;;;;;22.00;43.16;99069.47;4984208;28;4732;-49
2022/04/08 11:42:31;;;;;;;;;;;;;;;22.02;43.14;99075.28;4980793;28;4151;-51
2022/04/08 11:44:57;;;;;;;;;;;;;;;22.05;43.05;99079.63;4976300;28;4201;-49
2022/04/08 11:47:31;;;;;;;;;;;;;;;22.05;43.24;99079.63;4982926;28;4473;-55
2022/04/08 11:50:07;;;;;;;;;;;;;;;22.07;43.25;99065.25;4981548;28;4631;-49
2022/04/08 11:52:33;;;;;;;;;;;;;;;22.08;43.19;99072.47;4980533;28;4555;-46
2022/04/08 11:55:07;;;;;;;;;;;;;;;22.09;43.07;99068.16;4982682;28;7231;-52
2022/04/08 11:57:42;;;;;;;;;;;;;;;22.10;43.16;99069.59;4980095;28;4749;-49
2022/04/08 12:00:09;;;;;;;;;;;;;;;22.11;43.03;99071.06;4982738;28;4551;-49
2022/04/08 12:02:38;;;;;;;;;;;;;;;22.10;43.17;99071.75;4977280;28;5233;-53
2022/04/08 12:05:05;;;;;;;;;;;;;;;22.08;43.15;99078.22;4979313;28;4199;-54
2022/04/08 12:07:49;;;;;;;;;;;;;;;22.07;43.15;99065.25;4977202;28;4471;-49
2022/04/08 12:10:15;;;;;;;;;;;;;;;22.08;43.01;99055.19;4975641;28;4697;-49
2022/04/08 12:12:43;;;;;;;;;;;;;;;22.11;43.10;99048.00;4978102;28;4563;-55
2022/04/08 12:15:09;;;;;;;;;;;;;;;22.10;42.84;99045.81;4976636;28;4439;-57
2022/04/08 12:17:43;;;;;;;;;;;;;;;22.10;43.09;99042.91;4975879;28;4247;-56
2022/04/08 12:20:13;;;;;;;;;;;;;;;22.13;43.00;99039.38;4979262;28;4628;-50
2022/04/08 12:22:40;;;;;;;;;;;;;;;22.15;42.70;99035.75;4976130;28;4146;-48
2022/04/08 12:25:07;;;;;;;;;;;;;;;22.15;42.90;99035.75;4977529;28;4647;-53
2022/04/08 12:27:34;;;;;;;;;;;;;;;22.13;42.72;99030.72;4976533;28;4005;-53
2022/04/08 12:30:25;;;;;;;;;;;;;;;22.14;42.73;99046.56;4978506;28;4176;-52
2022/04/08 12:32:51;;;;;;;;;;;;;;;22.14;42.63;99028.56;4978636;28;4071;-53
2022/04/08 12:35:18;;;;;;;;;;;;;;;22.12;42.73;99032.13;4976425;28;4906;-54
2022/04/08 12:37:45;;;;;;;;;;;;;;;22.17;43.20;99033.66;4979495;28;4273;-47
2022/04/08 12:40:11;;;;;;;;;;;;;;;22.18;42.93;99040.84;4976378;28;4110;-49
2022/04/08 12:42:38;;;;;;;;;;;;;;;22.21;42.69;99032.22;4974280;28;4673;-49
2022/04/08 12:45:05;;;;;;;;;;;;;;;22.17;42.96;99027.88;4976215;28;4225;-51
2022/04/08 12:47:31;;;;;;;;;;;;;;;22.19;42.60;99021.41;4978414;28;5198;-52
2022/04/08 12:50:02;;;;;;;;;;;;;;;22.21;42.77;99023.56;4976155;28;4135;-53
2022/04/08 12:52:29;;;;;;;;;;;;;;;22.09;42.66;99009.78;4977841;28;5245;-48
2022/04/08 12:54:55;;;;;;;;;;;;;;;22.07;42.44;99013.34;4977358;28;6048;-52
2022/04/08 12:57:21;;;;;;;;;;;;;;;22.09;42.59;99019.16;4980689;28;4283;-49